Terminal Aerodrome Forecast
Issued by NWS Topeka, KS

Home | Current Version | Previous Version | Text Only | Print | Product List | Glossary On
Versions: 1 2 3 4 5 6 7 8 9 10 11 12 13 14 15 16 17 18 19 20 21 22 23 24 25 26 27
565
FTUS43 KTOP 292010 AAA
TAFTOP
TAF AMD
KTOP 292010Z 2920/3018 08013KT 5SM -RA VCTS OVC015CB
     FM300100 09011KT 5SM -RA VCTS SCT008 OVC012CB
     FM301300 19007KT P6SM SCT008 BKN015=

USA.gov is the U.S. government's official web portal to all federal, state and local government web resources and services.